createdAt,value
2019-06-26T00:01:23.617Z,84.00
2019-06-26T00:04:01.359Z,84.50
2019-06-26T00:06:35.267Z,84.00
2019-06-26T00:09:08.891Z,84.60
2019-06-26T00:11:46.113Z,84.80
2019-06-26T00:14:20.755Z,84.70
2019-06-26T00:17:03.834Z,85.60
2019-06-26T00:19:32.106Z,85.40
2019-06-26T00:22:06.711Z,85.40
2019-06-26T00:24:37.095Z,84.40
2019-06-26T00:27:16.420Z,84.80
2019-06-26T00:29:52.312Z,85.10
2019-06-26T00:32:25.034Z,84.80
2019-06-26T00:35:01.444Z,84.10
2019-06-26T00:37:31.378Z,84.20
2019-06-26T00:40:04.830Z,84.10
2019-06-26T00:42:37.771Z,85.20
2019-06-26T00:45:08.291Z,87.10
2019-06-26T00:47:40.898Z,87.20
2019-06-26T00:50:14.264Z,87.70
2019-06-26T00:52:52.320Z,89.20
2019-06-26T00:55:26.797Z,87.80
2019-06-26T00:57:58.082Z,88.30
2019-06-26T01:00:35.857Z,89.20
2019-06-26T01:03:05.841Z,89.40
2019-06-26T01:05:38.645Z,89.70
2019-06-26T01:08:08.854Z,89.60
2019-06-26T01:10:38.882Z,90.10
2019-06-26T01:13:13.769Z,89.70
2019-06-26T01:15:47.462Z,89.90
2019-06-26T01:18:18.816Z,89.10
2019-06-26T01:20:52.666Z,88.80
2019-06-26T01:23:22.599Z,89.10
2019-06-26T01:25:53.567Z,89.40
2019-06-26T01:28:28.093Z,90.20
2019-06-26T01:31:01.577Z,90.30
2019-06-26T01:33:32.635Z,90.10
2019-06-26T01:36:16.342Z,88.40
2019-06-26T01:38:41.784Z,87.40
2019-06-26T01:41:11.733Z,87.70
2019-06-26T01:43:42.719Z,88.50
2019-06-26T01:46:12.852Z,89.00
2019-06-26T01:48:42.698Z,88.40
2019-06-26T01:51:18.594Z,88.30
2019-06-26T01:53:52.846Z,87.80
2019-06-26T01:56:25.301Z,89.70
2019-06-26T01:58:59.062Z,90.10
2019-06-26T02:01:30.229Z,90.20
2019-06-26T02:04:04.807Z,89.70
2019-06-26T02:06:36.301Z,90.00
2019-06-26T02:09:07.468Z,90.00
2019-06-26T02:11:37.437Z,90.20
2019-06-26T02:14:09.648Z,90.20
2019-06-26T02:16:40.671Z,89.10
2019-06-26T02:19:14.897Z,88.80
2019-06-26T02:21:44.890Z,89.40
2019-06-26T02:24:16.408Z,90.10
2019-06-26T02:26:46.373Z,90.10
2019-06-26T02:29:26.555Z,90.40
2019-06-26T02:31:55.501Z,90.40
2019-06-26T02:34:25.007Z,90.30
2019-06-26T02:36:57.964Z,90.70
2019-06-26T02:39:36.291Z,91.10
2019-06-26T02:42:08.842Z,90.80
2019-06-26T02:44:52.768Z,91.30
2019-06-26T02:47:19.699Z,91.50
2019-06-26T02:49:45.979Z,91.50
2019-06-26T02:52:16.585Z,91.00
2019-06-26T02:54:47.870Z,91.20
2019-06-26T02:57:20.362Z,90.70
2019-06-26T02:59:50.096Z,90.50
2019-06-26T03:05:14.749Z,90.50
2019-06-26T03:07:49.251Z,90.80
2019-06-26T03:10:20.403Z,90.20
2019-06-26T03:12:50.323Z,90.10
2019-06-26T03:15:21.253Z,90.10
2019-06-26T03:17:56.021Z,90.80
2019-06-26T03:20:34.722Z,91.50
2019-06-26T03:23:15.757Z,91.90
2019-06-26T03:25:48.179Z,92.60
2019-06-26T03:28:18.619Z,92.50
2019-06-26T03:30:48.452Z,92.20
2019-06-26T03:33:18.482Z,92.20
2019-06-26T03:35:49.977Z,92.20
2019-06-26T03:38:27.651Z,92.40
2019-06-26T03:40:57.554Z,92.30
2019-06-26T03:43:28.552Z,92.10
2019-06-26T03:46:06.395Z,91.70
2019-06-26T03:48:37.829Z,91.70
2019-06-26T03:51:14.133Z,92.70
2019-06-26T03:53:50.523Z,92.90
2019-06-26T03:56:21.469Z,92.60
2019-06-26T03:59:02.173Z,92.00
2019-06-26T04:01:35.776Z,91.60
2019-06-26T04:04:21.436Z,91.10
2019-06-26T04:06:46.228Z,91.30
2019-06-26T04:09:17.931Z,91.70
2019-06-26T04:11:49.513Z,91.80
2019-06-26T04:14:21.175Z,91.70
2019-06-26T04:16:53.635Z,92.60
2019-06-26T04:19:32.264Z,92.80
2019-06-26T04:22:05.758Z,93.00
2019-06-26T04:24:44.452Z,93.50
2019-06-26T04:27:14.515Z,93.30
2019-06-26T04:29:45.734Z,92.90
2019-06-26T04:32:20.544Z,92.60
2019-06-26T04:34:54.481Z,93.00
2019-06-26T04:37:23.291Z,92.90
2019-06-26T04:39:55.708Z,93.30
2019-06-26T04:42:28.402Z,93.60
2019-06-26T04:45:02.383Z,94.00
2019-06-26T04:47:37.130Z,94.20
2019-06-26T04:50:09.350Z,93.90
2019-06-26T04:52:42.643Z,94.20
2019-06-26T04:55:15.926Z,94.50
2019-06-26T04:57:46.462Z,94.50
2019-06-26T05:00:21.843Z,93.90
2019-06-26T05:02:51.751Z,93.80
2019-06-26T05:05:38.193Z,93.50
2019-06-26T05:07:58.074Z,93.80
2019-06-26T05:10:29.534Z,94.40
2019-06-26T05:13:06.317Z,94.30
2019-06-26T05:15:42.484Z,93.00
2019-06-26T05:18:21.210Z,92.90
2019-06-26T05:21:00.519Z,92.40
2019-06-26T05:23:37.164Z,92.40
2019-06-26T05:26:11.156Z,92.40
2019-06-26T05:28:46.938Z,92.80
2019-06-26T05:31:27.878Z,94.60
2019-06-26T05:34:21.753Z,93.00
2019-06-26T05:36:57.219Z,94.00
2019-06-26T05:39:36.018Z,94.00
2019-06-26T05:42:13.482Z,93.40
2019-06-26T05:44:49.557Z,94.40
2019-06-26T05:47:43.990Z,94.90
2019-06-26T05:50:18.290Z,94.90
2019-06-26T05:53:00.186Z,94.40
2019-06-26T05:55:24.806Z,94.10
2019-06-26T05:58:01.202Z,93.60
2019-06-26T06:03:34.839Z,93.00
2019-06-26T06:06:07.839Z,92.60
2019-06-26T06:08:37.850Z,92.70
2019-06-26T06:11:11.368Z,92.60
2019-06-26T06:13:52.317Z,92.40
2019-06-26T06:16:29.371Z,92.20
2019-06-26T06:19:03.952Z,92.90
2019-06-26T06:21:36.960Z,92.40
2019-06-26T06:24:12.997Z,92.10
2019-06-26T06:26:45.196Z,91.50
2019-06-26T06:29:16.026Z,91.70
2019-06-26T06:31:50.022Z,91.80
2019-06-26T06:34:20.357Z,91.70
2019-06-26T06:36:53.571Z,91.90
2019-06-26T06:39:23.504Z,91.30
2019-06-26T06:41:58.544Z,91.00
2019-06-26T06:44:33.577Z,90.20
2019-06-26T06:47:09.136Z,90.10
2019-06-26T06:49:40.424Z,90.20
2019-06-26T06:52:16.485Z,90.10
2019-06-26T06:54:50.628Z,90.50
2019-06-26T06:57:28.910Z,90.70
2019-06-26T07:00:01.773Z,90.70
2019-06-26T07:02:34.212Z,90.20
2019-06-26T07:05:04.433Z,90.10
2019-06-26T07:07:37.244Z,90.30
2019-06-26T07:10:14.222Z,89.50
2019-06-26T07:12:48.312Z,89.20
2019-06-26T07:15:25.693Z,89.50
2019-06-26T07:18:06.104Z,89.80
2019-06-26T07:20:44.466Z,89.90
2019-06-26T07:23:14.410Z,90.20
2019-06-26T07:25:58.381Z,90.20
2019-06-26T07:28:39.388Z,89.50
2019-06-26T07:31:12.760Z,90.10
2019-06-26T07:33:55.713Z,89.60
2019-06-26T07:36:37.767Z,89.20
2019-06-26T07:39:11.790Z,89.20
2019-06-26T07:41:41.832Z,88.30
2019-06-26T07:44:29.517Z,88.00
2019-06-26T07:47:02.776Z,87.40
2019-06-26T07:49:43.414Z,86.70
2019-06-26T07:52:13.785Z,86.40
2019-06-26T07:54:51.538Z,86.90
2019-06-26T07:57:29.020Z,86.20
2019-06-26T07:59:59.325Z,84.60
2019-06-26T08:02:34.086Z,85.60
2019-06-26T08:05:10.023Z,84.60
2019-06-26T08:07:43.442Z,85.50
2019-06-26T08:10:18.151Z,84.80
2019-06-26T08:12:53.890Z,84.80
2019-06-26T08:15:27.062Z,85.20
2019-06-26T08:18:08.613Z,83.20
2019-06-26T08:21:07.496Z,82.50
2019-06-26T08:23:24.138Z,82.70
2019-06-26T08:26:01.885Z,82.20
2019-06-26T08:28:37.004Z,82.30
2019-06-26T08:31:11.091Z,80.50
2019-06-26T08:33:50.566Z,79.80
2019-06-26T08:36:20.736Z,79.80
2019-06-26T08:39:01.132Z,77.10
2019-06-26T08:41:40.795Z,78.20
2019-06-26T08:44:21.627Z,77.90
2019-06-26T08:47:01.273Z,76.60
2019-06-26T08:49:43.766Z,73.40
2019-06-26T08:52:16.136Z,73.70
2019-06-26T08:54:51.804Z,71.70
2019-06-26T08:57:26.065Z,72.40
2019-06-26T08:59:57.244Z,73.70
2019-06-26T09:05:10.666Z,73.20
2019-06-26T09:07:48.085Z,71.80
2019-06-26T09:10:20.881Z,73.00
2019-06-26T09:12:53.806Z,72.90
2019-06-26T09:15:35.833Z,71.60
2019-06-26T09:18:08.856Z,71.50
2019-06-26T09:20:43.453Z,73.40
2019-06-26T09:23:39.581Z,72.20
2019-06-26T09:26:29.648Z,73.20
2019-06-26T09:29:02.448Z,71.40
2019-06-26T09:31:44.581Z,71.70
2019-06-26T09:34:19.067Z,70.50
2019-06-26T09:37:10.570Z,68.40
2019-06-26T09:39:41.677Z,67.90
2019-06-26T09:42:22.814Z,66.90
2019-06-26T09:45:02.750Z,66.40
2019-06-26T09:47:54.416Z,67.90
2019-06-26T09:50:39.780Z,68.00
2019-06-26T09:53:42.604Z,65.80
2019-06-26T09:56:14.180Z,66.40
2019-06-26T09:58:55.540Z,64.40
2019-06-26T10:01:28.279Z,65.10
2019-06-26T10:04:08.697Z,64.60
2019-06-26T10:06:46.027Z,63.90
2019-06-26T10:09:21.733Z,63.50
2019-06-26T10:12:05.254Z,64.30
2019-06-26T10:14:58.140Z,64.80
2019-06-26T10:17:48.202Z,63.30
2019-06-26T10:20:25.068Z,62.30
2019-06-26T10:23:09.054Z,61.90
2019-06-26T10:26:05.919Z,61.80
2019-06-26T10:29:01.466Z,62.70
2019-06-26T10:31:44.217Z,62.60
2019-06-26T10:37:10.607Z,61.30
2019-06-26T10:39:45.310Z,60.80
2019-06-26T10:42:23.345Z,59.20
2019-06-26T10:45:19.078Z,60.10
2019-06-26T10:48:00.018Z,60.90
2019-06-26T10:50:58.827Z,61.80
2019-06-26T10:53:43.529Z,60.30
2019-06-26T10:56:40.324Z,59.40
2019-06-26T10:59:20.669Z,58.40
2019-06-26T11:02:10.205Z,58.20
2019-06-26T11:05:02.245Z,59.70
2019-06-26T11:10:26.976Z,58.80
2019-06-26T11:12:54.518Z,58.70
2019-06-26T11:15:38.117Z,59.40
2019-06-26T11:18:29.281Z,58.30
2019-06-26T11:24:06.773Z,63.80
2019-06-26T11:27:29.180Z,64.70
2019-06-26T11:29:41.278Z,65.60
2019-06-26T11:32:28.661Z,64.60
2019-06-26T11:35:05.629Z,62.60
2019-06-26T11:37:57.791Z,65.50
2019-06-26T11:40:35.310Z,65.20
2019-06-26T11:43:14.320Z,61.40
2019-06-26T11:46:01.693Z,63.90
2019-06-26T11:48:45.973Z,63.80
2019-06-26T11:51:21.435Z,63.80
2019-06-26T11:54:03.348Z,65.40
2019-06-26T11:56:55.295Z,64.50
2019-06-26T11:59:19.469Z,64.60
2019-06-26T12:02:15.345Z,60.90
2019-06-26T12:04:53.046Z,62.60
2019-06-26T12:07:35.513Z,59.50
2019-06-26T12:10:31.670Z,59.50
2019-06-26T12:13:08.061Z,62.50
2019-06-26T12:15:47.132Z,59.10
2019-06-26T12:18:52.544Z,60.50
2019-06-26T12:21:29.067Z,58.70
2019-06-26T12:24:08.679Z,60.70
2019-06-26T12:27:02.878Z,58.80
2019-06-26T12:29:41.053Z,60.80
2019-06-26T12:33:01.701Z,58.90
2019-06-26T12:35:37.988Z,59.60
2019-06-26T12:38:15.780Z,58.80
2019-06-26T12:40:57.207Z,59.50
2019-06-26T12:43:36.497Z,59.70
2019-06-26T12:49:02.683Z,56.20
2019-06-26T12:52:07.795Z,58.00
2019-06-26T12:55:01.860Z,59.50
2019-06-26T12:58:11.725Z,56.20
2019-06-26T13:03:31.906Z,56.60
2019-06-26T13:06:06.970Z,57.70
2019-06-26T13:09:40.844Z,55.60
2019-06-26T13:11:35.183Z,56.60
2019-06-26T13:14:24.748Z,57.70
2019-06-26T13:23:45.430Z,58.70
2019-06-26T13:33:02.844Z,57.50
2019-06-26T13:33:30.038Z,57.50
2019-06-26T13:35:32.873Z,55.60
2019-06-26T13:38:02.764Z,55.50
2019-06-26T13:40:32.676Z,54.90
2019-06-26T13:43:02.533Z,55.30
2019-06-26T13:46:07.418Z,52.20
2019-06-26T13:52:52.255Z,53.40
2019-06-26T13:55:48.400Z,52.30
2019-06-26T13:58:57.337Z,50.60
2019-06-26T14:09:34.901Z,49.80
2019-06-26T14:13:10.739Z,50.60
2019-06-26T14:13:25.307Z,49.90
2019-06-26T14:16:36.883Z,48.60
2019-06-26T14:20:06.869Z,48.40
2019-06-26T14:26:39.014Z,48.70
2019-06-26T14:33:55.098Z,45.10
2019-06-26T14:40:18.950Z,47.80
2019-06-26T14:47:25.580Z,47.20
2019-06-26T14:50:33.890Z,44.20
2019-06-26T15:00:44.699Z,46.30
2019-06-26T15:04:11.009Z,44.50
2019-06-26T15:07:45.296Z,45.60
2019-06-26T15:15:18.294Z,47.10
2019-06-26T15:18:48.231Z,46.50
2019-06-26T15:22:04.312Z,45.00
2019-06-26T15:25:13.405Z,45.20
2019-06-26T15:35:21.162Z,39.50
2019-06-26T15:41:55.531Z,43.30
2019-06-26T15:44:49.313Z,41.60
2019-06-26T15:48:00.151Z,41.70
2019-06-26T15:51:12.061Z,43.90
2019-06-26T15:54:48.267Z,40.30
2019-06-26T16:19:51.538Z,40.20
2019-06-26T16:23:31.798Z,43.50
2019-06-26T16:30:44.713Z,43.20
2019-06-26T16:36:46.582Z,44.10
2019-06-26T16:39:42.309Z,47.30
2019-06-26T16:53:43.164Z,47.90
2019-06-26T17:04:38.848Z,46.60
2019-06-26T17:08:25.232Z,46.20
2019-06-26T17:15:32.550Z,49.80
2019-06-26T17:19:03.630Z,49.90
2019-06-26T17:36:04.989Z,51.40
2019-06-26T17:43:50.350Z,50.70
2019-06-26T17:46:18.415Z,51.20
2019-06-26T17:49:59.637Z,51.50
2019-06-26T17:56:02.846Z,54.40
2019-06-26T18:06:40.525Z,55.80
2019-06-26T18:17:21.090Z,56.80
2019-06-26T18:20:35.291Z,57.00
2019-06-26T18:24:01.108Z,57.60
2019-06-26T18:30:05.194Z,58.70
2019-06-26T18:30:16.361Z,57.70
2019-06-26T18:33:44.854Z,60.00
2019-06-26T18:37:26.306Z,60.70
2019-06-26T18:40:43.230Z,61.90
2019-06-26T18:45:15.971Z,63.00
2019-06-26T18:50:47.625Z,64.30
2019-06-26T18:54:04.482Z,65.40
2019-06-26T18:57:46.835Z,66.00
2019-06-26T19:05:00.935Z,67.80
2019-06-26T19:11:39.230Z,69.80
2019-06-26T19:19:12.406Z,72.00
2019-06-26T19:22:39.730Z,72.70
2019-06-26T19:26:10.535Z,73.60
2019-06-26T19:29:27.929Z,74.10
2019-06-26T19:35:44.139Z,76.30
2019-06-26T19:38:44.406Z,76.20
2019-06-26T19:42:08.753Z,76.90
2019-06-26T19:45:21.154Z,77.50
2019-06-26T19:49:17.290Z,78.70
2019-06-26T19:52:33.189Z,78.40
2019-06-26T19:59:42.717Z,79.70
2019-06-26T20:03:05.574Z,80.30
2019-06-26T20:09:49.373Z,79.70
2019-06-26T20:13:30.113Z,79.90
2019-06-26T20:20:38.800Z,79.60
2019-06-26T20:31:52.136Z,76.70
2019-06-26T20:38:14.127Z,74.90
2019-06-26T20:48:36.665Z,75.30
2019-06-26T20:52:04.524Z,75.70
2019-06-26T20:55:13.316Z,75.40
2019-06-26T21:01:37.880Z,74.80
2019-06-26T21:05:10.893Z,74.70
2019-06-26T21:11:06.343Z,74.10
2019-06-26T21:14:13.329Z,74.40
2019-06-26T21:29:53.673Z,73.80
2019-06-26T21:33:21.121Z,75.40
2019-06-26T21:44:45.819Z,73.70
2019-06-26T21:47:59.879Z,73.70
2019-06-26T22:08:00.591Z,75.40
2019-06-26T22:21:10.756Z,74.90
2019-06-26T22:24:44.034Z,75.30
2019-06-26T22:28:24.734Z,75.90
2019-06-26T22:31:36.028Z,77.20
2019-06-26T22:38:15.018Z,77.80
2019-06-26T22:41:33.701Z,77.60
2019-06-26T22:44:45.629Z,76.90
2019-06-26T22:51:49.505Z,77.90
2019-06-26T22:54:38.847Z,78.40
2019-06-26T22:58:14.705Z,78.40
2019-06-26T23:04:33.743Z,78.80
2019-06-26T23:08:33.482Z,79.70
2019-06-26T23:12:00.369Z,79.40
2019-06-26T23:14:57.361Z,79.60
2019-06-26T23:18:11.558Z,78.10
2019-06-26T23:21:46.718Z,77.90
2019-06-26T23:25:24.913Z,79.10
2019-06-26T23:28:56.890Z,79.20
2019-06-26T23:35:55.403Z,79.00
2019-06-26T23:39:06.310Z,79.40
2019-06-26T23:42:10.862Z,79.80
2019-06-26T23:45:51.427Z,79.80
2019-06-26T23:49:29.966Z,79.60
2019-06-26T23:52:39.365Z,80.00
2019-06-26T23:55:58.111Z,79.80
2019-06-26T23:59:23.255Z,80.20
